x

Edisto - 41 Nm Southeast Of Charleston, Sc (41004) Wave Buoy

11:50pm - Wed 1st Jul 2015 All times are EDT. -4 hours from GMT.

  • Sig Wave height 3.6ft
  • Swell Direction
  • Peak Period 6s
  • Average Period 5s
  • Wind
    16mph, 18mph gusts
  • Sea Temp 82°f
  • Air Temp 82°f
  • Sea Pressure 1016.5mb
  • Edisto - 41 Nm Southeast Of Charleston, Sc
  • Edisto - 41 Nm Southeast Of Charleston, Sc

More Historic Weather Station data

Upgrade to MSW Pro to gain access to the past 30 days of data for over 8000 Wavebouys and Weather Stations around the globe.

Join Pro

Comparision Forecast

View Surf forecast
   
Wed 07/01 11:50pm 3.5ft 6s 5s 16 18 mph 1016.5mb 82f 82f
10:50pm 3.5ft 6s 5s 16 18 mph 1016.5mb 82f 83f
9:50pm 4ft 6s 5s 16 18 mph 1016mb 82f 82f
8:50pm 4.5ft 6s 5s 18 20 mph 1015.3mb 82f 82f
7:50pm 4.5ft 6s 5s 18 22 mph 1015.3mb 83f 82f
6:50pm 4.5ft 6s 5s 18 22 mph 1015mb 82f 82f
5:50pm 5ft 6s 5s 20 22 mph 1014.9mb 82f 81f
4:50pm 5ft 6s 5s 20 25 mph 1015.1mb 82f 80f
3:50pm 5ft 8s 5s 18 20 mph 1015.5mb 82f 80f
2:50pm 5.5ft 8s 5s 18 22 mph 1016.1mb 82f 79f
1:50pm 5.5ft 8s 5s 22 27 mph 1016.1mb 82f 79f
12:50pm 5ft 9s 5s 22 27 mph 1016.4mb 82f 79f
11:50am 5ft 9s 5s 20 22 mph 1016.5mb 82f 79f
10:50am 4.5ft 9s 5s 20 22 mph 1016.3mb 82f 79f
9:50am 4.5ft 5s 5s 20 25 mph 1016.2mb 82f 79f
8:50am 4.5ft 6s 5s 20 22 mph 1015.9mb 82f 79f
7:50am 4.5ft 8s 5s 20 22 mph 1015.9mb 82f 80f
6:50am 4.5ft 6s 5s 18 22 mph 1015.5mb 82f 80f
5:50am 4.5ft 5s 4s 18 20 mph 1015.3mb 82f 80f
4:50am 4.5ft 5s 4s 20 25 mph 1015.5mb 82f 80f
3:50am 4ft 5s 4s 20 25 mph 1015.6mb 82f 80f
2:50am 3.5ft 8s 5s 22 27 mph 1015.4mb 82f 81f
1:50am 3.5ft 5s 4s 16 18 mph 1015.4mb 82f 81f
12:50am 4ft 5s 4s 18 20 mph 1015.4mb 82f 81f
Tue 06/30 11:50pm 4ft 5s 5s 18 20 mph 1015.4mb 83f 82f
10:50pm 4.5ft 5s 4s 18
mph
1015.8mb 83f 82f
9:50pm 4.5ft 5s 4s 20 25 mph 1014.8mb 83f 82f
8:50pm 4.5ft 5s 4s 20 25 mph 1014.2mb 83f 82f
7:50pm 4ft 4s 4s 22 25 mph 1014.6mb 83f 82f
6:50pm 3.5ft 4s 4s 20 25 mph 1014.7mb 83f 83f
5:50pm 3.5ft 7s 4s 20 25 mph 1015mb 83f 82f
4:50pm 3ft 7s 4s 18 22 mph 1014.9mb 83f 82f
3:50pm 3ft 8s 5s 16 18 mph 1015.1mb 83f 82f
2:50pm 2.5ft 7s 5s 13 16 mph 1015.7mb 82f 82f
1:50pm 3.5ft 6s 5s 11 13 mph 1016mb 82f 82f
12:50pm 3.5ft 8s 5s 11 13 mph 1017mb 82f 82f
11:50am 3.5ft 7s 5s 11 13 mph 1017.1mb 82f 81f
10:50am 3.5ft 7s 5s 13 16 mph 1017mb 82f 82f
9:50am 3.5ft 7s 5s 13 16 mph 1016.9mb 82f 82f
8:50am 3.5ft 7s 5s 16 18 mph 1016.6mb 82f 81f
7:50am 3.5ft 8s 5s 16 18 mph 1015.9mb 82f 81f
6:50am 4ft 8s 5s 16 20 mph 1015.7mb 83f 81f
5:50am 3.5ft 7s 5s 16 18 mph 1015mb 83f 81f
4:50am 4ft 8s 5s 16 20 mph 1014.6mb 83f 81f
3:50am 4ft 8s 5s 20 22 mph 1014.6mb 83f 81f
2:50am 4ft 7s 5s 18 20 mph 1014.9mb 83f 81f
1:50am 3.5ft 8s 5s 18 20 mph 1015.2mb 83f 82f
12:50am 4ft 7s 5s 18 20 mph 1015.5mb 83f 82f
Mon 06/29 11:50pm 4ft 8s 5s 18 20 mph 1015.4mb 83f 82f
10:50pm 3.5ft 8s 5s 18 20 mph 1015.6mb 83f 82f
9:50pm 3.5ft 7s 5s 18 20 mph 1015.2mb 83f 82f
8:50pm 4ft 8s 5s 16 18 mph 1014.8mb 83f 82f
7:50pm 4ft 7s 5s 16 18 mph 1014.5mb 83f 82f
6:50pm 3.5ft 7s 5s 13 16 mph 1014.5mb 83f 82f
5:50pm 4ft 8s 6s 13 16 mph 1014.3mb 83f 82f
4:50pm 3.5ft 7s 5s 13 16 mph 1014.1mb 83f 82f
3:50pm 3.5ft 7s 5s 13 16 mph 1014.5mb 83f 82f
2:50pm 4ft 7s 5s 11 13 mph 1014.9mb 83f 81f
1:50pm 4ft 7s 5s 11 16 mph 1015.1mb 83f 81f
12:50pm 4ft 8s 5s 13 16 mph 1015.2mb 83f 80f
11:50am 4.5ft 7s 5s 13 16 mph 1015.5mb 83f 80f
10:50am 4ft 7s 5s 13 18 mph 1015.3mb 83f 80f
9:50am 4.5ft 7s 5s 13 16 mph 1015mb 83f 80f
8:50am 4.5ft 5s 5s 13
mph
1014.6mb 83f 80f
7:50am 4.5ft 5s 5s 16 20 mph 1014.2mb 83f 80f
6:50am 4.5ft 5s 5s 18 22 mph 1013.7mb 83f 80f
5:50am 4.5ft 6s 5s 20 25 mph 1013.1mb 83f 80f
4:50am 4.5ft 7s 5s 20 25 mph 1012.6mb 83f 80f
3:50am 4.5ft 6s 5s 25 27 mph 1012.5mb 83f 81f
2:50am 4.5ft 6s 5s 18 22 mph 1013.1mb 83f 81f
1:50am 4.5ft 5s 4s 20 22 mph 1013.4mb 83f 81f
12:50am 4.5ft 5s 5s 18 20 mph 1013.9mb 83f 81f
Sun 06/28 11:50pm 4.5ft 5s 5s 18 20 mph 1013.8mb 83f 80f
10:50pm 4ft 5s 5s 20 25 mph 1013.9mb 83f 81f
9:50pm 4ft 7s 5s 13 16 mph 1013.9mb 83f 80f
8:50pm 4ft 8s 5s 13 16 mph 1013.3mb 83f 79f
7:50pm 4.5ft 6s 5s 16 22 mph 1013.3mb 83f 80f
6:50pm 5.5ft 6s 5s 18 22 mph 1013mb 83f 80f
5:50pm 5ft 7s 5s 22 27 mph 1012.1mb 83f 83f
4:50pm 5ft 6s 5s 20 22 mph 1012.5mb 83f 82f
3:50pm 5ft 6s 5s 20 25 mph 1011.9mb 83f 82f
2:50pm 5ft 6s 5s 22 25 mph 1012.2mb 83f 81f
1:50pm 5ft 7s 5s 18 20 mph 1012.7mb 83f 81f
12:50pm 5ft 6s 5s 22 25 mph 1012.8mb 83f 81f
11:50am 5.5ft 6s 5s 18 22 mph 1013.1mb 83f 81f
10:50am 5.5ft 6s 5s 20 22 mph 1012.8mb 83f 81f
9:50am 5.5ft 6s 5s 22 27 mph 1012.7mb 83f 81f
8:50am 5ft 6s 5s 25 27 mph 1012.6mb 83f 81f
7:50am 5ft 6s 5s 22 27 mph 1011.9mb 83f 81f
6:50am 5.5ft 6s 5s 22 27 mph 1011.4mb 83f 82f
5:50am 6ft 6s 5s 22 29 mph 1010.6mb 83f 82f
4:50am 6.5ft 6s 5s 25 29 mph 1010.3mb 83f 82f